sensor_id;sensor_type;location;lat;lon;timestamp;temperature;humidity
26107;DHT22;13866;50.748;12.630;2022-12-16T00:02:23;-5.40;99.90
26107;DHT22;13866;50.748;12.630;2022-12-16T00:04:49;-5.40;99.90
26107;DHT22;13866;50.748;12.630;2022-12-16T00:07:14;-5.30;99.90
26107;DHT22;13866;50.748;12.630;2022-12-16T00:09:40;-5.30;99.90
26107;DHT22;13866;50.748;12.630;2022-12-16T00:12:05;-5.30;99.90
26107;DHT22;13866;50.748;12.630;2022-12-16T00:14:31;-5.20;99.90
26107;DHT22;13866;50.748;12.630;2022-12-16T00:16:57;-5.20;99.90
26107;DHT22;13866;50.748;12.630;2022-12-16T00:19:22;-5.20;99.90
26107;DHT22;13866;50.748;12.630;2022-12-16T00:21:49;-5.20;99.90
26107;DHT22;13866;50.748;12.630;2022-12-16T00:24:14;-5.20;99.90
26107;DHT22;13866;50.748;12.630;2022-12-16T00:26:40;-5.20;99.90
26107;DHT22;13866;50.748;12.630;2022-12-16T00:29:05;-5.20;99.90
26107;DHT22;13866;50.748;12.630;2022-12-16T00:31:31;-5.20;99.90
26107;DHT22;13866;50.748;12.630;2022-12-16T00:33:57;-5.20;99.90
26107;DHT22;13866;50.748;12.630;2022-12-16T00:36:23;-5.20;99.90
26107;DHT22;13866;50.748;12.630;2022-12-16T00:38:50;-5.20;99.90
26107;DHT22;13866;50.748;12.630;2022-12-16T00:41:16;-5.20;99.90
26107;DHT22;13866;50.748;12.630;2022-12-16T00:43:41;-5.20;99.90
26107;DHT22;13866;50.748;12.630;2022-12-16T00:46:07;-5.20;99.90
26107;DHT22;13866;50.748;12.630;2022-12-16T00:48:32;-5.20;99.90
26107;DHT22;13866;50.748;12.630;2022-12-16T00:50:58;-5.20;99.90
26107;DHT22;13866;50.748;12.630;2022-12-16T00:53:24;-5.20;99.90
26107;DHT22;13866;50.748;12.630;2022-12-16T00:55:51;-5.20;99.90
26107;DHT22;13866;50.748;12.630;2022-12-16T00:58:16;-5.20;99.90
26107;DHT22;13866;50.748;12.630;2022-12-16T01:00:42;-5.20;99.90
26107;DHT22;13866;50.748;12.630;2022-12-16T01:03:08;-5.10;99.90
26107;DHT22;13866;50.748;12.630;2022-12-16T01:05:33;-5.20;99.90
26107;DHT22;13866;50.748;12.630;2022-12-16T01:08:01;-5.20;99.90
26107;DHT22;13866;50.748;12.630;2022-12-16T01:10:27;-5.20;99.90
26107;DHT22;13866;50.748;12.630;2022-12-16T01:12:52;-5.30;99.90
26107;DHT22;13866;50.748;12.630;2022-12-16T01:15:18;-5.20;99.90
26107;DHT22;13866;50.748;12.630;2022-12-16T01:17:44;-5.10;99.90
26107;DHT22;13866;50.748;12.630;2022-12-16T01:20:10;-5.10;99.90
26107;DHT22;13866;50.748;12.630;2022-12-16T01:22:36;-5.10;99.90
26107;DHT22;13866;50.748;12.630;2022-12-16T01:25:02;-5.10;99.90
26107;DHT22;13866;50.748;12.630;2022-12-16T01:27:28;-5.20;99.90
26107;DHT22;13866;50.748;12.630;2022-12-16T01:29:54;-5.20;99.90
26107;DHT22;13866;50.748;12.630;2022-12-16T01:32:19;-5.20;99.90
26107;DHT22;13866;50.748;12.630;2022-12-16T01:34:52;-5.30;99.90
26107;DHT22;13866;50.748;12.630;2022-12-16T01:37:18;-5.30;99.90
26107;DHT22;13866;50.748;12.630;2022-12-16T01:39:43;-5.30;99.90
26107;DHT22;13866;50.748;12.630;2022-12-16T01:42:11;-5.30;99.90
26107;DHT22;13866;50.748;12.630;2022-12-16T01:44:37;-5.20;99.90
26107;DHT22;13866;50.748;12.630;2022-12-16T01:47:04;-5.20;99.90
26107;DHT22;13866;50.748;12.630;2022-12-16T01:50:08;-5.20;99.90
26107;DHT22;13866;50.748;12.630;2022-12-16T01:52:39;-5.20;99.90
26107;DHT22;13866;50.748;12.630;2022-12-16T01:55:32;-5.20;99.90
26107;DHT22;13866;50.748;12.630;2022-12-16T01:58:11;-5.20;99.90
26107;DHT22;13866;50.748;12.630;2022-12-16T02:00:39;-5.20;99.90
26107;DHT22;13866;50.748;12.630;2022-12-16T02:03:05;-5.20;99.90
26107;DHT22;13866;50.748;12.630;2022-12-16T02:05:33;-5.20;99.90
26107;DHT22;13866;50.748;12.630;2022-12-16T02:08:00;-5.20;99.90
26107;DHT22;13866;50.748;12.630;2022-12-16T02:13:30;-5.20;99.90
26107;DHT22;13866;50.748;12.630;2022-12-16T02:21:28;-5.20;99.90
26107;DHT22;13866;50.748;12.630;2022-12-16T02:24:17;-5.20;99.90
26107;DHT22;13866;50.748;12.630;2022-12-16T02:27:19;-5.20;99.90
26107;DHT22;13866;50.748;12.630;2022-12-16T02:30:07;-5.30;99.90
26107;DHT22;13866;50.748;12.630;2022-12-16T02:33:08;-5.30;99.90
26107;DHT22;13866;50.748;12.630;2022-12-16T02:35:43;-5.20;99.90
26107;DHT22;13866;50.748;12.630;2022-12-16T02:38:23;-5.20;99.90
26107;DHT22;13866;50.748;12.630;2022-12-16T02:41:06;-5.20;99.90
26107;DHT22;13866;50.748;12.630;2022-12-16T02:43:56;-5.20;99.90
26107;DHT22;13866;50.748;12.630;2022-12-16T02:46:25;-5.20;99.90
26107;DHT22;13866;50.748;12.630;2022-12-16T02:48:52;-5.20;99.90
26107;DHT22;13866;50.748;12.630;2022-12-16T02:51:19;-5.20;99.90
26107;DHT22;13866;50.748;12.630;2022-12-16T02:53:45;-5.20;99.90
26107;DHT22;13866;50.748;12.630;2022-12-16T02:56:40;-5.20;99.90
26107;DHT22;13866;50.748;12.630;2022-12-16T02:59:11;-5.20;99.90
26107;DHT22;13866;50.748;12.630;2022-12-16T03:01:45;-5.20;99.90
26107;DHT22;13866;50.748;12.630;2022-12-16T03:04:18;-5.10;99.90
26107;DHT22;13866;50.748;12.630;2022-12-16T03:06:47;-5.10;99.90
26107;DHT22;13866;50.748;12.630;2022-12-16T03:09:18;-5.10;99.90
26107;DHT22;13866;50.748;12.630;2022-12-16T03:11:45;-5.10;99.90
26107;DHT22;13866;50.748;12.630;2022-12-16T03:14:14;-5.00;99.90
26107;DHT22;13866;50.748;12.630;2022-12-16T03:16:41;-5.00;99.90
26107;DHT22;13866;50.748;12.630;2022-12-16T03:19:09;-5.00;99.90
26107;DHT22;13866;50.748;12.630;2022-12-16T03:21:52;-4.90;99.90
26107;DHT22;13866;50.748;12.630;2022-12-16T03:24:19;-5.00;99.90
26107;DHT22;13866;50.748;12.630;2022-12-16T03:29:43;-5.00;99.90
26107;DHT22;13866;50.748;12.630;2022-12-16T03:32:19;-5.00;99.90
26107;DHT22;13866;50.748;12.630;2022-12-16T03:34:52;-5.00;99.90
26107;DHT22;13866;50.748;12.630;2022-12-16T03:37:21;-5.00;99.90
26107;DHT22;13866;50.748;12.630;2022-12-16T03:39:51;-5.00;99.90
26107;DHT22;13866;50.748;12.630;2022-12-16T03:42:17;-5.00;99.90
26107;DHT22;13866;50.748;12.630;2022-12-16T03:44:44;-5.00;99.90
26107;DHT22;13866;50.748;12.630;2022-12-16T03:47:11;-5.10;99.90
26107;DHT22;13866;50.748;12.630;2022-12-16T03:49:37;-5.10;99.90
26107;DHT22;13866;50.748;12.630;2022-12-16T03:52:03;-5.10;99.90
26107;DHT22;13866;50.748;12.630;2022-12-16T03:54:28;-5.10;99.90
26107;DHT22;13866;50.748;12.630;2022-12-16T03:56:54;-5.10;99.90
26107;DHT22;13866;50.748;12.630;2022-12-16T03:59:19;-5.10;99.90
26107;DHT22;13866;50.748;12.630;2022-12-16T04:01:45;-5.10;99.90
26107;DHT22;13866;50.748;12.630;2022-12-16T04:04:10;-5.10;99.90
26107;DHT22;13866;50.748;12.630;2022-12-16T04:06:36;-5.20;99.90
26107;DHT22;13866;50.748;12.630;2022-12-16T04:09:02;-5.20;99.90
26107;DHT22;13866;50.748;12.630;2022-12-16T04:11:27;-5.20;99.90
26107;DHT22;13866;50.748;12.630;2022-12-16T04:14:11;-5.20;99.90
26107;DHT22;13866;50.748;12.630;2022-12-16T04:16:56;-5.20;99.90
26107;DHT22;13866;50.748;12.630;2022-12-16T04:19:42;-5.10;99.90
26107;DHT22;13866;50.748;12.630;2022-12-16T04:22:36;-5.10;99.90
26107;DHT22;13866;50.748;12.630;2022-12-16T04:25:29;-5.10;99.90
26107;DHT22;13866;50.748;12.630;2022-12-16T04:27:55;-5.10;99.90
26107;DHT22;13866;50.748;12.630;2022-12-16T04:30:23;-5.10;99.90
26107;DHT22;13866;50.748;12.630;2022-12-16T04:33:01;-5.10;99.90
26107;DHT22;13866;50.748;12.630;2022-12-16T04:35:47;-5.10;99.90
26107;DHT22;13866;50.748;12.630;2022-12-16T04:38:31;-5.10;99.90
26107;DHT22;13866;50.748;12.630;2022-12-16T04:41:16;-5.10;99.90
26107;DHT22;13866;50.748;12.630;2022-12-16T04:44:00;-5.10;99.90
26107;DHT22;13866;50.748;12.630;2022-12-16T04:46:45;-5.10;99.90
26107;DHT22;13866;50.748;12.630;2022-12-16T04:49:29;-5.10;99.90
26107;DHT22;13866;50.748;12.630;2022-12-16T04:52:13;-5.10;99.90
26107;DHT22;13866;50.748;12.630;2022-12-16T04:54:57;-5.10;99.90
26107;DHT22;13866;50.748;12.630;2022-12-16T04:57:47;-5.10;99.90
26107;DHT22;13866;50.748;12.630;2022-12-16T05:00:32;-5.20;99.90
26107;DHT22;13866;50.748;12.630;2022-12-16T05:03:15;-5.20;99.90
26107;DHT22;13866;50.748;12.630;2022-12-16T05:06:00;-5.20;99.90
26107;DHT22;13866;50.748;12.630;2022-12-16T05:08:43;-5.20;99.90
26107;DHT22;13866;50.748;12.630;2022-12-16T05:11:28;-5.20;99.90
26107;DHT22;13866;50.748;12.630;2022-12-16T05:14:12;-5.20;99.90
26107;DHT22;13866;50.748;12.630;2022-12-16T05:16:56;-5.30;99.90
26107;DHT22;13866;50.748;12.630;2022-12-16T05:19:40;-5.30;99.90
26107;DHT22;13866;50.748;12.630;2022-12-16T05:22:24;-5.30;99.90
26107;DHT22;13866;50.748;12.630;2022-12-16T05:25:08;-5.30;99.90
26107;DHT22;13866;50.748;12.630;2022-12-16T05:27:53;-5.40;99.90
26107;DHT22;13866;50.748;12.630;2022-12-16T05:30:37;-5.40;99.90
26107;DHT22;13866;50.748;12.630;2022-12-16T05:33:21;-5.40;99.90
26107;DHT22;13866;50.748;12.630;2022-12-16T05:36:05;-5.40;99.90
26107;DHT22;13866;50.748;12.630;2022-12-16T05:38:50;-5.50;99.90
26107;DHT22;13866;50.748;12.630;2022-12-16T05:41:34;-5.50;99.90
26107;DHT22;13866;50.748;12.630;2022-12-16T05:44:18;-5.60;99.90
26107;DHT22;13866;50.748;12.630;2022-12-16T05:47:03;-5.60;99.90
26107;DHT22;13866;50.748;12.630;2022-12-16T05:49:47;-5.70;99.90
26107;DHT22;13866;50.748;12.630;2022-12-16T05:52:31;-5.70;99.90
26107;DHT22;13866;50.748;12.630;2022-12-16T05:55:18;-5.70;99.90
26107;DHT22;13866;50.748;12.630;2022-12-16T05:58:02;-5.70;99.90
26107;DHT22;13866;50.748;12.630;2022-12-16T06:00:46;-5.80;99.90
26107;DHT22;13866;50.748;12.630;2022-12-16T06:03:30;-5.70;99.90
26107;DHT22;13866;50.748;12.630;2022-12-16T06:06:14;-5.80;99.90
26107;DHT22;13866;50.748;12.630;2022-12-16T06:08:58;-5.80;99.90
26107;DHT22;13866;50.748;12.630;2022-12-16T06:11:42;-5.90;99.90
26107;DHT22;13866;50.748;12.630;2022-12-16T06:14:26;-5.80;99.90
26107;DHT22;13866;50.748;12.630;2022-12-16T06:17:10;-5.90;99.90
26107;DHT22;13866;50.748;12.630;2022-12-16T06:19:54;-5.90;99.90
26107;DHT22;13866;50.748;12.630;2022-12-16T06:22:38;-5.90;99.90
26107;DHT22;13866;50.748;12.630;2022-12-16T06:25:22;-5.90;99.90
26107;DHT22;13866;50.748;12.630;2022-12-16T06:28:06;-5.90;99.90
26107;DHT22;13866;50.748;12.630;2022-12-16T06:30:50;-6.00;99.90
26107;DHT22;13866;50.748;12.630;2022-12-16T06:33:34;-6.00;99.90
26107;DHT22;13866;50.748;12.630;2022-12-16T06:36:18;-6.00;99.90
26107;DHT22;13866;50.748;12.630;2022-12-16T06:39:02;-6.00;99.90
26107;DHT22;13866;50.748;12.630;2022-12-16T06:41:46;-6.00;99.90
26107;DHT22;13866;50.748;12.630;2022-12-16T06:44:30;-6.00;99.90
26107;DHT22;13866;50.748;12.630;2022-12-16T06:47:14;-6.00;99.90
26107;DHT22;13866;50.748;12.630;2022-12-16T06:49:58;-6.00;99.90
26107;DHT22;13866;50.748;12.630;2022-12-16T06:52:42;-6.00;99.90
26107;DHT22;13866;50.748;12.630;2022-12-16T06:55:27;-6.00;99.90
26107;DHT22;13866;50.748;12.630;2022-12-16T06:58:11;-6.00;99.90
26107;DHT22;13866;50.748;12.630;2022-12-16T07:00:55;-6.00;99.90
26107;DHT22;13866;50.748;12.630;2022-12-16T07:03:39;-6.00;99.90
26107;DHT22;13866;50.748;12.630;2022-12-16T07:06:23;-6.10;99.90
26107;DHT22;13866;50.748;12.630;2022-12-16T07:09:07;-6.10;99.90
26107;DHT22;13866;50.748;12.630;2022-12-16T07:11:51;-6.10;99.90
26107;DHT22;13866;50.748;12.630;2022-12-16T07:14:35;-6.10;99.90
26107;DHT22;13866;50.748;12.630;2022-12-16T07:17:19;-6.10;99.90
26107;DHT22;13866;50.748;12.630;2022-12-16T07:20:04;-6.10;99.90
26107;DHT22;13866;50.748;12.630;2022-12-16T07:22:48;-6.10;99.90
26107;DHT22;13866;50.748;12.630;2022-12-16T07:25:32;-6.00;99.90
26107;DHT22;13866;50.748;12.630;2022-12-16T07:28:35;-6.10;99.90
26107;DHT22;13866;50.748;12.630;2022-12-16T07:31:20;-6.00;99.90
26107;DHT22;13866;50.748;12.630;2022-12-16T07:34:04;-6.00;99.90
26107;DHT22;13866;50.748;12.630;2022-12-16T07:36:48;-5.90;99.90
26107;DHT22;13866;50.748;12.630;2022-12-16T07:39:32;-5.90;99.90
26107;DHT22;13866;50.748;12.630;2022-12-16T07:42:16;-5.90;99.90
26107;DHT22;13866;50.748;12.630;2022-12-16T07:45:00;-5.80;99.90
26107;DHT22;13866;50.748;12.630;2022-12-16T07:47:48;-5.80;99.90
26107;DHT22;13866;50.748;12.630;2022-12-16T07:50:43;-5.70;99.90
26107;DHT22;13866;50.748;12.630;2022-12-16T07:53:28;-5.70;99.90
26107;DHT22;13866;50.748;12.630;2022-12-16T07:56:12;-5.70;99.90
26107;DHT22;13866;50.748;12.630;2022-12-16T07:58:56;-5.70;99.90
26107;DHT22;13866;50.748;12.630;2022-12-16T08:01:40;-5.70;99.90
26107;DHT22;13866;50.748;12.630;2022-12-16T08:04:24;-5.70;99.90
26107;DHT22;13866;50.748;12.630;2022-12-16T08:07:08;-5.70;99.90
26107;DHT22;13866;50.748;12.630;2022-12-16T08:09:52;-5.50;99.90
26107;DHT22;13866;50.748;12.630;2022-12-16T08:12:36;-5.50;99.90
26107;DHT22;13866;50.748;12.630;2022-12-16T08:15:20;-5.50;99.90
26107;DHT22;13866;50.748;12.630;2022-12-16T08:18:04;-5.40;99.90
26107;DHT22;13866;50.748;12.630;2022-12-16T08:20:48;-5.40;99.90
26107;DHT22;13866;50.748;12.630;2022-12-16T08:23:32;-5.50;99.90
26107;DHT22;13866;50.748;12.630;2022-12-16T08:26:15;-5.50;99.90
26107;DHT22;13866;50.748;12.630;2022-12-16T08:29:00;-5.50;99.90
26107;DHT22;13866;50.748;12.630;2022-12-16T08:31:44;-5.40;99.90
26107;DHT22;13866;50.748;12.630;2022-12-16T08:34:27;-5.40;99.90
26107;DHT22;13866;50.748;12.630;2022-12-16T08:37:12;-5.40;99.90
26107;DHT22;13866;50.748;12.630;2022-12-16T08:39:56;-5.30;99.90
26107;DHT22;13866;50.748;12.630;2022-12-16T08:42:40;-5.40;99.90
26107;DHT22;13866;50.748;12.630;2022-12-16T08:45:24;-5.40;99.90
26107;DHT22;13866;50.748;12.630;2022-12-16T08:48:08;-5.40;99.90
26107;DHT22;13866;50.748;12.630;2022-12-16T08:50:52;-5.40;99.90
26107;DHT22;13866;50.748;12.630;2022-12-16T08:53:36;-5.50;99.90
26107;DHT22;13866;50.748;12.630;2022-12-16T08:56:20;-5.40;99.90
26107;DHT22;13866;50.748;12.630;2022-12-16T08:59:04;-5.40;99.90
26107;DHT22;13866;50.748;12.630;2022-12-16T09:01:48;-5.40;99.90
26107;DHT22;13866;50.748;12.630;2022-12-16T09:04:32;-5.40;99.90
26107;DHT22;13866;50.748;12.630;2022-12-16T09:07:16;-5.40;99.90
26107;DHT22;13866;50.748;12.630;2022-12-16T09:10:00;-5.40;99.90
26107;DHT22;13866;50.748;12.630;2022-12-16T09:12:44;-5.40;99.90
26107;DHT22;13866;50.748;12.630;2022-12-16T09:15:28;-5.40;99.90
26107;DHT22;13866;50.748;12.630;2022-12-16T09:18:12;-5.40;99.90
26107;DHT22;13866;50.748;12.630;2022-12-16T09:20:57;-5.50;99.90
26107;DHT22;13866;50.748;12.630;2022-12-16T09:23:41;-5.50;99.90
26107;DHT22;13866;50.748;12.630;2022-12-16T09:26:25;-5.40;99.90
26107;DHT22;13866;50.748;12.630;2022-12-16T09:29:09;-5.40;99.90
26107;DHT22;13866;50.748;12.630;2022-12-16T09:31:53;-5.40;99.90
26107;DHT22;13866;50.748;12.630;2022-12-16T09:34:37;-5.50;99.90
26107;DHT22;13866;50.748;12.630;2022-12-16T09:37:21;-5.50;99.90
26107;DHT22;13866;50.748;12.630;2022-12-16T09:40:07;-5.50;99.90
26107;DHT22;13866;50.748;12.630;2022-12-16T09:43:07;-5.60;99.90
26107;DHT22;13866;50.748;12.630;2022-12-16T09:46:09;-5.60;99.90
26107;DHT22;13866;50.748;12.630;2022-12-16T09:49:04;-5.60;99.90
26107;DHT22;13866;50.748;12.630;2022-12-16T09:51:49;-5.50;99.90
26107;DHT22;13866;50.748;12.630;2022-12-16T09:54:36;-5.50;99.90
26107;DHT22;13866;50.748;12.630;2022-12-16T09:57:23;-5.60;99.90
26107;DHT22;13866;50.748;12.630;2022-12-16T10:00:24;-5.70;99.90
26107;DHT22;13866;50.748;12.630;2022-12-16T10:03:45;-5.80;99.90
26107;DHT22;13866;50.748;12.630;2022-12-16T10:06:35;-6.00;99.90
26107;DHT22;13866;50.748;12.630;2022-12-16T10:12:56;-6.10;99.90
26107;DHT22;13866;50.748;12.630;2022-12-16T10:16:09;-6.00;99.90
26107;DHT22;13866;50.748;12.630;2022-12-16T10:19:05;-5.80;99.90
26107;DHT22;13866;50.748;12.630;2022-12-16T10:22:20;-5.80;99.90
26107;DHT22;13866;50.748;12.630;2022-12-16T10:28:23;-5.70;99.90
26107;DHT22;13866;50.748;12.630;2022-12-16T10:31:14;-5.60;99.90
26107;DHT22;13866;50.748;12.630;2022-12-16T10:33:58;-5.60;99.90
26107;DHT22;13866;50.748;12.630;2022-12-16T10:36:43;-5.50;99.90
26107;DHT22;13866;50.748;12.630;2022-12-16T10:39:41;-5.60;99.90
26107;DHT22;13866;50.748;12.630;2022-12-16T10:42:30;-5.60;99.90
26107;DHT22;13866;50.748;12.630;2022-12-16T10:45:32;-5.60;99.90
26107;DHT22;13866;50.748;12.630;2022-12-16T10:48:23;-5.70;99.90
26107;DHT22;13866;50.748;12.630;2022-12-16T10:51:13;-5.70;99.90
26107;DHT22;13866;50.748;12.630;2022-12-16T10:57:26;-5.70;99.90
26107;DHT22;13866;50.748;12.630;2022-12-16T11:00:20;-5.70;99.90
26107;DHT22;13866;50.748;12.630;2022-12-16T11:03:25;-5.60;99.90
26107;DHT22;13866;50.748;12.630;2022-12-16T11:06:14;-5.50;99.90
26107;DHT22;13866;50.748;12.630;2022-12-16T11:09:31;-5.50;99.90
26107;DHT22;13866;50.748;12.630;2022-12-16T11:18:11;-5.20;99.90
26107;DHT22;13866;50.748;12.630;2022-12-16T11:21:13;-5.10;99.90
26107;DHT22;13866;50.748;12.630;2022-12-16T11:24:16;-5.00;99.90
26107;DHT22;13866;50.748;12.630;2022-12-16T11:27:03;-5.00;99.90
26107;DHT22;13866;50.748;12.630;2022-12-16T11:29:56;-5.00;99.90
26107;DHT22;13866;50.748;12.630;2022-12-16T11:32:56;-5.10;99.90
26107;DHT22;13866;50.748;12.630;2022-12-16T11:35:44;-5.20;99.90
26107;DHT22;13866;50.748;12.630;2022-12-16T11:38:42;-5.30;99.90
26107;DHT22;13866;50.748;12.630;2022-12-16T11:41:31;-5.40;99.90
26107;DHT22;13866;50.748;12.630;2022-12-16T11:47:41;-5.60;99.90
26107;DHT22;13866;50.748;12.630;2022-12-16T11:50:26;-5.60;99.90
26107;DHT22;13866;50.748;12.630;2022-12-16T11:53:39;-5.70;99.90
26107;DHT22;13866;50.748;12.630;2022-12-16T11:56:29;-5.60;99.90
26107;DHT22;13866;50.748;12.630;2022-12-16T12:02:37;-5.70;99.90
26107;DHT22;13866;50.748;12.630;2022-12-16T12:05:33;-5.70;99.90
26107;DHT22;13866;50.748;12.630;2022-12-16T12:08:45;-5.70;99.90
26107;DHT22;13866;50.748;12.630;2022-12-16T12:18:07;-5.90;99.90
26107;DHT22;13866;50.748;12.630;2022-12-16T12:21:41;-5.90;99.90
26107;DHT22;13866;50.748;12.630;2022-12-16T12:24:16;-5.90;99.90
26107;DHT22;13866;50.748;12.630;2022-12-16T12:33:02;-5.90;99.90
26107;DHT22;13866;50.748;12.630;2022-12-16T12:36:29;-5.90;99.90
26107;DHT22;13866;50.748;12.630;2022-12-16T12:42:59;-5.90;99.90
26107;DHT22;13866;50.748;12.630;2022-12-16T12:45:46;-5.70;99.90
26107;DHT22;13866;50.748;12.630;2022-12-16T12:51:51;-5.80;99.90
26107;DHT22;13866;50.748;12.630;2022-12-16T12:55:03;-5.70;99.90
26107;DHT22;13866;50.748;12.630;2022-12-16T12:57:52;-5.70;99.90
26107;DHT22;13866;50.748;12.630;2022-12-16T13:00:45;-5.60;99.90
26107;DHT22;13866;50.748;12.630;2022-12-16T13:03:45;-5.70;99.90
26107;DHT22;13866;50.748;12.630;2022-12-16T13:06:34;-5.70;99.90
26107;DHT22;13866;50.748;12.630;2022-12-16T13:09:38;-5.70;99.90
26107;DHT22;13866;50.748;12.630;2022-12-16T13:12:30;-5.60;99.90
26107;DHT22;13866;50.748;12.630;2022-12-16T13:15:35;-5.60;99.90
26107;DHT22;13866;50.748;12.630;2022-12-16T13:18:22;-5.70;99.90
26107;DHT22;13866;50.748;12.630;2022-12-16T13:24:36;-5.70;99.90
26107;DHT22;13866;50.748;12.630;2022-12-16T13:27:21;-5.70;99.90
26107;DHT22;13866;50.748;12.630;2022-12-16T13:33:39;-5.90;99.90
26107;DHT22;13866;50.748;12.630;2022-12-16T13:35:59;-5.80;99.90
26107;DHT22;13866;50.748;12.630;2022-12-16T13:38:49;-5.80;99.90
26107;DHT22;13866;50.748;12.630;2022-12-16T13:48:23;-5.80;99.90
26107;DHT22;13866;50.748;12.630;2022-12-16T13:50:47;-5.80;99.90
26107;DHT22;13866;50.748;12.630;2022-12-16T13:53:38;-5.80;99.90
26107;DHT22;13866;50.748;12.630;2022-12-16T13:56:29;-5.90;99.90
26107;DHT22;13866;50.748;12.630;2022-12-16T13:59:17;-5.90;99.90
26107;DHT22;13866;50.748;12.630;2022-12-16T14:02:35;-5.90;99.90
26107;DHT22;13866;50.748;12.630;2022-12-16T14:05:24;-5.90;99.90
26107;DHT22;13866;50.748;12.630;2022-12-16T14:08:21;-5.90;99.90
26107;DHT22;13866;50.748;12.630;2022-12-16T14:11:17;-6.00;99.90
26107;DHT22;13866;50.748;12.630;2022-12-16T14:14:28;-6.00;99.90
26107;DHT22;13866;50.748;12.630;2022-12-16T14:17:20;-6.10;99.90
26107;DHT22;13866;50.748;12.630;2022-12-16T14:20:32;-6.20;99.90
26107;DHT22;13866;50.748;12.630;2022-12-16T14:23:43;-6.30;99.90
26107;DHT22;13866;50.748;12.630;2022-12-16T14:26:34;-6.40;99.90
26107;DHT22;13866;50.748;12.630;2022-12-16T14:29:24;-6.50;99.90
26107;DHT22;13866;50.748;12.630;2022-12-16T14:32:20;-6.50;99.90
26107;DHT22;13866;50.748;12.630;2022-12-16T14:35:11;-6.40;99.90
26107;DHT22;13866;50.748;12.630;2022-12-16T14:37:56;-6.40;99.90
26107;DHT22;13866;50.748;12.630;2022-12-16T14:40:41;-6.40;99.90
26107;DHT22;13866;50.748;12.630;2022-12-16T14:43:25;-6.40;99.90
26107;DHT22;13866;50.748;12.630;2022-12-16T14:46:35;-6.40;99.90
26107;DHT22;13866;50.748;12.630;2022-12-16T14:49:25;-6.40;99.90
26107;DHT22;13866;50.748;12.630;2022-12-16T14:52:21;-6.50;99.90
26107;DHT22;13866;50.748;12.630;2022-12-16T14:55:15;-6.50;99.90
26107;DHT22;13866;50.748;12.630;2022-12-16T14:58:12;-6.50;99.90
26107;DHT22;13866;50.748;12.630;2022-12-16T15:00:59;-6.50;99.90
26107;DHT22;13866;50.748;12.630;2022-12-16T15:03:48;-6.30;99.90
26107;DHT22;13866;50.748;12.630;2022-12-16T15:06:43;-6.30;99.90
26107;DHT22;13866;50.748;12.630;2022-12-16T15:09:32;-6.30;99.90
26107;DHT22;13866;50.748;12.630;2022-12-16T15:12:21;-6.30;99.90
26107;DHT22;13866;50.748;12.630;2022-12-16T15:15:12;-6.40;99.90
26107;DHT22;13866;50.748;12.630;2022-12-16T15:17:58;-6.40;99.90
26107;DHT22;13866;50.748;12.630;2022-12-16T15:20:50;-6.50;99.90
26107;DHT22;13866;50.748;12.630;2022-12-16T15:23:40;-6.50;99.90
26107;DHT22;13866;50.748;12.630;2022-12-16T15:26:28;-6.40;99.90
26107;DHT22;13866;50.748;12.630;2022-12-16T15:29:38;-6.40;99.90
26107;DHT22;13866;50.748;12.630;2022-12-16T15:35:10;-6.40;99.90
26107;DHT22;13866;50.748;12.630;2022-12-16T15:38:10;-6.30;99.90
26107;DHT22;13866;50.748;12.630;2022-12-16T15:40:55;-6.40;99.90
26107;DHT22;13866;50.748;12.630;2022-12-16T15:43:39;-6.30;99.90
26107;DHT22;13866;50.748;12.630;2022-12-16T15:46:25;-6.30;99.90
26107;DHT22;13866;50.748;12.630;2022-12-16T15:49:32;-6.40;99.90
26107;DHT22;13866;50.748;12.630;2022-12-16T15:55:41;-6.50;99.90
26107;DHT22;13866;50.748;12.630;2022-12-16T15:58:32;-6.40;99.90
26107;DHT22;13866;50.748;12.630;2022-12-16T16:01:20;-6.40;99.90
26107;DHT22;13866;50.748;12.630;2022-12-16T16:04:22;-6.40;99.90
26107;DHT22;13866;50.748;12.630;2022-12-16T16:07:18;-6.40;99.90
26107;DHT22;13866;50.748;12.630;2022-12-16T16:10:17;-6.40;99.90
26107;DHT22;13866;50.748;12.630;2022-12-16T16:13:01;-6.40;99.90
26107;DHT22;13866;50.748;12.630;2022-12-16T16:15:46;-6.40;99.90
26107;DHT22;13866;50.748;12.630;2022-12-16T16:18:30;-6.40;99.90
26107;DHT22;13866;50.748;12.630;2022-12-16T16:21:14;-6.40;99.90
26107;DHT22;13866;50.748;12.630;2022-12-16T16:23:58;-6.50;99.90
26107;DHT22;13866;50.748;12.630;2022-12-16T16:26:42;-6.50;99.90
26107;DHT22;13866;50.748;12.630;2022-12-16T16:29:26;-6.50;99.90
26107;DHT22;13866;50.748;12.630;2022-12-16T16:32:10;-6.50;99.90
26107;DHT22;13866;50.748;12.630;2022-12-16T16:34:54;-6.50;99.90
26107;DHT22;13866;50.748;12.630;2022-12-16T16:37:38;-6.50;99.90
26107;DHT22;13866;50.748;12.630;2022-12-16T16:40:35;-6.50;99.90
26107;DHT22;13866;50.748;12.630;2022-12-16T16:43:20;-6.50;99.90
26107;DHT22;13866;50.748;12.630;2022-12-16T16:49:22;-6.50;99.90
26107;DHT22;13866;50.748;12.630;2022-12-16T16:52:12;-6.50;99.90
26107;DHT22;13866;50.748;12.630;2022-12-16T16:54:56;-6.50;99.90
26107;DHT22;13866;50.748;12.630;2022-12-16T16:57:40;-6.40;99.90
26107;DHT22;13866;50.748;12.630;2022-12-16T17:00:24;-6.40;99.90
26107;DHT22;13866;50.748;12.630;2022-12-16T17:03:08;-6.30;99.90
26107;DHT22;13866;50.748;12.630;2022-12-16T17:05:52;-6.30;99.90
26107;DHT22;13866;50.748;12.630;2022-12-16T17:08:36;-6.30;99.90
26107;DHT22;13866;50.748;12.630;2022-12-16T17:11:21;-6.30;99.90
26107;DHT22;13866;50.748;12.630;2022-12-16T17:14:13;-6.20;99.90
26107;DHT22;13866;50.748;12.630;2022-12-16T17:16:58;-6.20;99.90
26107;DHT22;13866;50.748;12.630;2022-12-16T17:19:42;-6.20;99.90
26107;DHT22;13866;50.748;12.630;2022-12-16T17:22:26;-6.30;99.90
26107;DHT22;13866;50.748;12.630;2022-12-16T17:25:11;-6.20;99.90
26107;DHT22;13866;50.748;12.630;2022-12-16T17:27:55;-6.10;99.90
26107;DHT22;13866;50.748;12.630;2022-12-16T17:30:39;-6.10;99.90
26107;DHT22;13866;50.748;12.630;2022-12-16T17:33:23;-6.10;99.90
26107;DHT22;13866;50.748;12.630;2022-12-16T17:36:12;-6.10;99.90
26107;DHT22;13866;50.748;12.630;2022-12-16T17:38:57;-6.10;99.90
26107;DHT22;13866;50.748;12.630;2022-12-16T17:41:41;-6.10;99.90
26107;DHT22;13866;50.748;12.630;2022-12-16T17:44:26;-6.10;99.90
26107;DHT22;13866;50.748;12.630;2022-12-16T17:47:10;-6.10;99.90
26107;DHT22;13866;50.748;12.630;2022-12-16T17:49:54;-6.10;99.90
26107;DHT22;13866;50.748;12.630;2022-12-16T17:52:38;-6.10;99.90
26107;DHT22;13866;50.748;12.630;2022-12-16T17:55:23;-6.10;99.90
26107;DHT22;13866;50.748;12.630;2022-12-16T17:58:07;-6.10;99.90
26107;DHT22;13866;50.748;12.630;2022-12-16T18:00:51;-6.10;99.90
26107;DHT22;13866;50.748;12.630;2022-12-16T18:03:35;-6.10;99.90
26107;DHT22;13866;50.748;12.630;2022-12-16T18:06:19;-6.10;99.90
26107;DHT22;13866;50.748;12.630;2022-12-16T18:09:04;-6.10;99.90
26107;DHT22;13866;50.748;12.630;2022-12-16T18:11:48;-6.10;99.90
26107;DHT22;13866;50.748;12.630;2022-12-16T18:14:32;-6.10;99.90